sensor_id;sensor_type;location;lat;lon;timestamp;temperature;humidity
439;DHT22;206;48.782;9.252;2023-04-06T00:01:39;4.50;27.50
439;DHT22;206;48.782;9.252;2023-04-06T00:04:05;4.50;27.30
439;DHT22;206;48.782;9.252;2023-04-06T00:06:31;4.50;27.30
439;DHT22;206;48.782;9.252;2023-04-06T00:08:57;4.50;27.10
439;DHT22;206;48.782;9.252;2023-04-06T00:11:23;4.50;27.10
439;DHT22;206;48.782;9.252;2023-04-06T00:13:49;4.50;27.20
439;DHT22;206;48.782;9.252;2023-04-06T00:16:15;4.50;27.40
439;DHT22;206;48.782;9.252;2023-04-06T00:18:40;4.50;27.60
439;DHT22;206;48.782;9.252;2023-04-06T00:21:06;4.40;27.50
439;DHT22;206;48.782;9.252;2023-04-06T00:23:32;4.50;27.60
439;DHT22;206;48.782;9.252;2023-04-06T00:25:57;4.40;27.60
439;DHT22;206;48.782;9.252;2023-04-06T00:28:23;4.40;27.80
439;DHT22;206;48.782;9.252;2023-04-06T00:30:52;4.40;28.00
439;DHT22;206;48.782;9.252;2023-04-06T00:33:19;4.30;28.30
439;DHT22;206;48.782;9.252;2023-04-06T00:35:45;4.30;28.40
439;DHT22;206;48.782;9.252;2023-04-06T00:38:11;4.20;28.50
439;DHT22;206;48.782;9.252;2023-04-06T00:40:37;4.20;28.60
439;DHT22;206;48.782;9.252;2023-04-06T00:43:07;4.20;28.70
439;DHT22;206;48.782;9.252;2023-04-06T00:45:37;4.20;28.80
439;DHT22;206;48.782;9.252;2023-04-06T00:48:04;4.20;28.80
439;DHT22;206;48.782;9.252;2023-04-06T00:50:30;4.20;29.10
439;DHT22;206;48.782;9.252;2023-04-06T00:52:56;4.20;29.20
439;DHT22;206;48.782;9.252;2023-04-06T00:55:21;4.10;29.40
439;DHT22;206;48.782;9.252;2023-04-06T00:57:47;4.10;29.70
439;DHT22;206;48.782;9.252;2023-04-06T01:00:13;4.10;30.00
439;DHT22;206;48.782;9.252;2023-04-06T01:02:39;4.10;30.00
439;DHT22;206;48.782;9.252;2023-04-06T01:05:05;4.10;30.00
439;DHT22;206;48.782;9.252;2023-04-06T01:07:31;4.10;30.00
439;DHT22;206;48.782;9.252;2023-04-06T01:09:58;4.10;30.00
439;DHT22;206;48.782;9.252;2023-04-06T01:12:24;4.10;30.00
439;DHT22;206;48.782;9.252;2023-04-06T01:14:49;4.00;30.00
439;DHT22;206;48.782;9.252;2023-04-06T01:17:15;4.10;30.00
439;DHT22;206;48.782;9.252;2023-04-06T01:19:41;4.10;30.00
439;DHT22;206;48.782;9.252;2023-04-06T01:22:07;4.10;30.00
439;DHT22;206;48.782;9.252;2023-04-06T01:24:33;4.10;30.00
439;DHT22;206;48.782;9.252;2023-04-06T01:26:59;4.10;30.00
439;DHT22;206;48.782;9.252;2023-04-06T01:29:26;4.10;29.90
439;DHT22;206;48.782;9.252;2023-04-06T01:31:51;4.10;30.00
439;DHT22;206;48.782;9.252;2023-04-06T01:34:17;4.00;30.00
439;DHT22;206;48.782;9.252;2023-04-06T01:36:43;4.00;30.00
439;DHT22;206;48.782;9.252;2023-04-06T01:39:08;4.00;30.00
439;DHT22;206;48.782;9.252;2023-04-06T01:41:34;3.90;30.00
439;DHT22;206;48.782;9.252;2023-04-06T01:44:01;3.90;29.90
439;DHT22;206;48.782;9.252;2023-04-06T01:46:27;3.90;29.90
439;DHT22;206;48.782;9.252;2023-04-06T01:48:52;3.90;30.40
439;DHT22;206;48.782;9.252;2023-04-06T01:51:18;3.80;30.60
439;DHT22;206;48.782;9.252;2023-04-06T01:53:44;3.80;30.70
439;DHT22;206;48.782;9.252;2023-04-06T01:56:10;3.80;30.90
439;DHT22;206;48.782;9.252;2023-04-06T01:58:35;3.80;31.40
439;DHT22;206;48.782;9.252;2023-04-06T02:01:01;3.70;31.30
439;DHT22;206;48.782;9.252;2023-04-06T02:03:27;3.70;31.60
439;DHT22;206;48.782;9.252;2023-04-06T02:05:53;3.70;31.70
439;DHT22;206;48.782;9.252;2023-04-06T02:08:18;3.70;31.60
439;DHT22;206;48.782;9.252;2023-04-06T02:10:44;3.60;31.70
439;DHT22;206;48.782;9.252;2023-04-06T02:13:10;3.60;31.60
439;DHT22;206;48.782;9.252;2023-04-06T02:15:35;3.50;31.80
439;DHT22;206;48.782;9.252;2023-04-06T02:18:01;3.50;32.00
439;DHT22;206;48.782;9.252;2023-04-06T02:20:27;3.50;32.00
439;DHT22;206;48.782;9.252;2023-04-06T02:22:52;3.50;32.40
439;DHT22;206;48.782;9.252;2023-04-06T02:25:18;3.50;32.60
439;DHT22;206;48.782;9.252;2023-04-06T02:27:43;3.50;32.80
439;DHT22;206;48.782;9.252;2023-04-06T02:30:09;3.40;32.60
439;DHT22;206;48.782;9.252;2023-04-06T02:32:35;3.50;32.80
439;DHT22;206;48.782;9.252;2023-04-06T02:35:01;3.40;32.30
439;DHT22;206;48.782;9.252;2023-04-06T02:37:27;3.40;32.60
439;DHT22;206;48.782;9.252;2023-04-06T02:39:53;3.40;32.60
439;DHT22;206;48.782;9.252;2023-04-06T02:42:19;3.30;32.90
439;DHT22;206;48.782;9.252;2023-04-06T02:44:45;3.40;32.90
439;DHT22;206;48.782;9.252;2023-04-06T02:47:11;3.30;32.80
439;DHT22;206;48.782;9.252;2023-04-06T02:49:36;3.30;33.00
439;DHT22;206;48.782;9.252;2023-04-06T02:52:02;3.30;33.00
439;DHT22;206;48.782;9.252;2023-04-06T02:54:28;3.30;32.90
439;DHT22;206;48.782;9.252;2023-04-06T02:56:54;3.30;33.00
439;DHT22;206;48.782;9.252;2023-04-06T02:59:20;3.20;33.00
439;DHT22;206;48.782;9.252;2023-04-06T03:01:45;3.20;33.40
439;DHT22;206;48.782;9.252;2023-04-06T03:04:11;3.20;33.70
439;DHT22;206;48.782;9.252;2023-04-06T03:06:37;3.10;34.00
439;DHT22;206;48.782;9.252;2023-04-06T03:09:03;3.00;34.00
439;DHT22;206;48.782;9.252;2023-04-06T03:11:28;3.00;34.00
439;DHT22;206;48.782;9.252;2023-04-06T03:13:54;3.00;34.10
439;DHT22;206;48.782;9.252;2023-04-06T03:16:20;3.00;34.00
439;DHT22;206;48.782;9.252;2023-04-06T03:18:45;2.90;34.00
439;DHT22;206;48.782;9.252;2023-04-06T03:21:12;2.90;34.20
439;DHT22;206;48.782;9.252;2023-04-06T03:23:40;2.90;34.30
439;DHT22;206;48.782;9.252;2023-04-06T03:26:06;2.90;34.40
439;DHT22;206;48.782;9.252;2023-04-06T03:28:31;2.80;34.50
439;DHT22;206;48.782;9.252;2023-04-06T03:30:57;2.80;34.50
439;DHT22;206;48.782;9.252;2023-04-06T03:33:23;2.80;34.50
439;DHT22;206;48.782;9.252;2023-04-06T03:35:48;2.90;34.60
439;DHT22;206;48.782;9.252;2023-04-06T03:38:14;2.90;34.40
439;DHT22;206;48.782;9.252;2023-04-06T03:40:39;2.90;34.30
439;DHT22;206;48.782;9.252;2023-04-06T03:43:05;2.90;34.50
439;DHT22;206;48.782;9.252;2023-04-06T03:45:31;2.90;34.60
439;DHT22;206;48.782;9.252;2023-04-06T03:47:56;2.90;34.60
439;DHT22;206;48.782;9.252;2023-04-06T03:50:22;3.00;34.70
439;DHT22;206;48.782;9.252;2023-04-06T03:52:48;2.90;35.00
439;DHT22;206;48.782;9.252;2023-04-06T03:55:13;2.90;35.00
439;DHT22;206;48.782;9.252;2023-04-06T03:57:39;2.90;35.00
439;DHT22;206;48.782;9.252;2023-04-06T04:00:06;2.90;34.30
439;DHT22;206;48.782;9.252;2023-04-06T04:02:32;2.90;34.00
439;DHT22;206;48.782;9.252;2023-04-06T04:04:57;2.80;33.90
439;DHT22;206;48.782;9.252;2023-04-06T04:07:23;2.80;33.90
439;DHT22;206;48.782;9.252;2023-04-06T04:09:48;2.80;34.20
439;DHT22;206;48.782;9.252;2023-04-06T04:12:14;2.80;34.10
439;DHT22;206;48.782;9.252;2023-04-06T04:14:41;2.80;34.20
439;DHT22;206;48.782;9.252;2023-04-06T04:17:07;2.80;34.60
439;DHT22;206;48.782;9.252;2023-04-06T04:19:33;2.70;34.70
439;DHT22;206;48.782;9.252;2023-04-06T04:21:58;2.80;34.80
439;DHT22;206;48.782;9.252;2023-04-06T04:24:24;2.80;34.90
439;DHT22;206;48.782;9.252;2023-04-06T04:26:50;2.80;35.10
439;DHT22;206;48.782;9.252;2023-04-06T04:29:15;2.80;35.10
439;DHT22;206;48.782;9.252;2023-04-06T04:31:42;2.80;35.10
439;DHT22;206;48.782;9.252;2023-04-06T04:34:07;2.70;34.70
439;DHT22;206;48.782;9.252;2023-04-06T04:36:33;2.60;34.60
439;DHT22;206;48.782;9.252;2023-04-06T04:38:58;2.60;34.70
439;DHT22;206;48.782;9.252;2023-04-06T04:41:26;2.60;34.60
439;DHT22;206;48.782;9.252;2023-04-06T04:43:52;2.60;34.80
439;DHT22;206;48.782;9.252;2023-04-06T04:46:17;2.60;34.90
439;DHT22;206;48.782;9.252;2023-04-06T04:48:43;2.60;34.80
439;DHT22;206;48.782;9.252;2023-04-06T04:51:09;2.60;35.10
439;DHT22;206;48.782;9.252;2023-04-06T04:53:34;2.60;34.70
439;DHT22;206;48.782;9.252;2023-04-06T04:56:00;2.70;34.90
439;DHT22;206;48.782;9.252;2023-04-06T04:58:25;2.70;34.60
439;DHT22;206;48.782;9.252;2023-04-06T05:00:51;2.70;34.20
439;DHT22;206;48.782;9.252;2023-04-06T05:03:21;2.80;34.30
439;DHT22;206;48.782;9.252;2023-04-06T05:05:47;2.80;34.00
439;DHT22;206;48.782;9.252;2023-04-06T05:08:13;2.80;34.10
439;DHT22;206;48.782;9.252;2023-04-06T05:10:39;2.90;34.30
439;DHT22;206;48.782;9.252;2023-04-06T05:13:04;2.90;34.50
439;DHT22;206;48.782;9.252;2023-04-06T05:15:30;2.90;34.80
439;DHT22;206;48.782;9.252;2023-04-06T05:17:56;3.00;34.80
439;DHT22;206;48.782;9.252;2023-04-06T05:20:22;3.00;34.70
439;DHT22;206;48.782;9.252;2023-04-06T05:22:47;3.00;34.60
439;DHT22;206;48.782;9.252;2023-04-06T05:25:14;3.00;34.60
439;DHT22;206;48.782;9.252;2023-04-06T05:27:40;3.00;34.90
439;DHT22;206;48.782;9.252;2023-04-06T05:30:07;3.00;35.00
439;DHT22;206;48.782;9.252;2023-04-06T05:32:33;2.90;35.20
439;DHT22;206;48.782;9.252;2023-04-06T05:34:58;2.90;35.60
439;DHT22;206;48.782;9.252;2023-04-06T05:37:24;2.90;35.70
439;DHT22;206;48.782;9.252;2023-04-06T05:39:50;2.90;35.70
439;DHT22;206;48.782;9.252;2023-04-06T05:42:16;2.90;35.90
439;DHT22;206;48.782;9.252;2023-04-06T05:44:42;2.90;35.70
439;DHT22;206;48.782;9.252;2023-04-06T05:47:07;2.90;35.20
439;DHT22;206;48.782;9.252;2023-04-06T05:49:33;3.00;34.70
439;DHT22;206;48.782;9.252;2023-04-06T05:52:00;3.10;34.20
439;DHT22;206;48.782;9.252;2023-04-06T05:54:25;3.20;34.00
439;DHT22;206;48.782;9.252;2023-04-06T05:56:51;3.30;33.00
439;DHT22;206;48.782;9.252;2023-04-06T05:59:16;3.30;32.80
439;DHT22;206;48.782;9.252;2023-04-06T06:01:42;3.30;32.70
439;DHT22;206;48.782;9.252;2023-04-06T06:04:08;3.50;32.60
439;DHT22;206;48.782;9.252;2023-04-06T06:06:33;3.70;31.00
439;DHT22;206;48.782;9.252;2023-04-06T06:08:59;3.80;30.20
439;DHT22;206;48.782;9.252;2023-04-06T06:11:26;4.00;30.00
439;DHT22;206;48.782;9.252;2023-04-06T06:13:52;4.10;30.00
439;DHT22;206;48.782;9.252;2023-04-06T06:16:18;4.30;29.50
439;DHT22;206;48.782;9.252;2023-04-06T06:18:44;4.30;28.90
439;DHT22;206;48.782;9.252;2023-04-06T06:21:10;4.30;29.00
439;DHT22;206;48.782;9.252;2023-04-06T06:23:37;4.50;28.50
439;DHT22;206;48.782;9.252;2023-04-06T06:26:03;4.70;28.00
439;DHT22;206;48.782;9.252;2023-04-06T06:28:29;4.90;27.40
439;DHT22;206;48.782;9.252;2023-04-06T06:30:55;5.00;26.70
439;DHT22;206;48.782;9.252;2023-04-06T06:33:21;5.10;26.70
439;DHT22;206;48.782;9.252;2023-04-06T06:35:46;5.10;26.30
439;DHT22;206;48.782;9.252;2023-04-06T06:38:12;5.10;26.00
439;DHT22;206;48.782;9.252;2023-04-06T06:40:38;5.00;25.80
439;DHT22;206;48.782;9.252;2023-04-06T06:43:03;5.30;25.30
439;DHT22;206;48.782;9.252;2023-04-06T06:45:29;6.10;23.50
439;DHT22;206;48.782;9.252;2023-04-06T06:47:55;6.70;22.20
439;DHT22;206;48.782;9.252;2023-04-06T06:50:20;7.50;20.30
439;DHT22;206;48.782;9.252;2023-04-06T06:52:46;8.10;19.20
439;DHT22;206;48.782;9.252;2023-04-06T06:55:12;8.40;18.50
439;DHT22;206;48.782;9.252;2023-04-06T06:57:37;9.40;17.00
439;DHT22;206;48.782;9.252;2023-04-06T07:00:04;10.40;14.90
439;DHT22;206;48.782;9.252;2023-04-06T07:02:31;10.60;13.40
439;DHT22;206;48.782;9.252;2023-04-06T07:04:56;10.50;13.80
439;DHT22;206;48.782;9.252;2023-04-06T07:07:22;10.30;13.70
439;DHT22;206;48.782;9.252;2023-04-06T07:09:48;10.70;13.00
439;DHT22;206;48.782;9.252;2023-04-06T07:12:13;11.10;12.40
439;DHT22;206;48.782;9.252;2023-04-06T07:14:39;11.30;12.10
439;DHT22;206;48.782;9.252;2023-04-06T07:17:04;11.30;12.30
439;DHT22;206;48.782;9.252;2023-04-06T07:19:30;11.70;11.70
439;DHT22;206;48.782;9.252;2023-04-06T07:21:56;11.90;11.60
439;DHT22;206;48.782;9.252;2023-04-06T07:24:21;12.20;11.10
439;DHT22;206;48.782;9.252;2023-04-06T07:26:47;12.50;10.30
439;DHT22;206;48.782;9.252;2023-04-06T07:29:13;12.60;10.40
439;DHT22;206;48.782;9.252;2023-04-06T07:31:38;12.90;10.10
439;DHT22;206;48.782;9.252;2023-04-06T07:34:04;13.20;9.50
439;DHT22;206;48.782;9.252;2023-04-06T07:36:30;12.40;10.30
439;DHT22;206;48.782;9.252;2023-04-06T07:38:55;12.30;10.50
439;DHT22;206;48.782;9.252;2023-04-06T07:41:21;12.80;10.60
439;DHT22;206;48.782;9.252;2023-04-06T07:43:47;12.90;10.20
439;DHT22;206;48.782;9.252;2023-04-06T07:46:13;13.00;9.50
439;DHT22;206;48.782;9.252;2023-04-06T07:48:39;13.00;9.90
439;DHT22;206;48.782;9.252;2023-04-06T07:51:05;12.90;9.70
439;DHT22;206;48.782;9.252;2023-04-06T07:53:32;12.90;10.20
439;DHT22;206;48.782;9.252;2023-04-06T07:56:00;12.90;10.00
439;DHT22;206;48.782;9.252;2023-04-06T07:58:26;12.70;10.50
439;DHT22;206;48.782;9.252;2023-04-06T08:00:52;12.50;10.30
439;DHT22;206;48.782;9.252;2023-04-06T08:03:17;12.50;10.30
439;DHT22;206;48.782;9.252;2023-04-06T08:05:46;11.90;11.80
439;DHT22;206;48.782;9.252;2023-04-06T08:08:11;12.20;14.70
439;DHT22;206;48.782;9.252;2023-04-06T08:10:37;13.00;10.80
439;DHT22;206;48.782;9.252;2023-04-06T08:13:02;13.40;10.00
439;DHT22;206;48.782;9.252;2023-04-06T08:15:28;13.10;10.00
439;DHT22;206;48.782;9.252;2023-04-06T08:17:54;12.50;10.30
439;DHT22;206;48.782;9.252;2023-04-06T08:20:22;12.30;10.90
439;DHT22;206;48.782;9.252;2023-04-06T08:22:48;12.40;10.80
439;DHT22;206;48.782;9.252;2023-04-06T08:25:13;12.40;10.90
439;DHT22;206;48.782;9.252;2023-04-06T08:27:39;12.30;11.10
439;DHT22;206;48.782;9.252;2023-04-06T08:30:05;12.10;11.10
439;DHT22;206;48.782;9.252;2023-04-06T08:32:31;12.10;11.20
439;DHT22;206;48.782;9.252;2023-04-06T08:34:57;12.10;11.30
439;DHT22;206;48.782;9.252;2023-04-06T08:37:22;11.90;11.70
439;DHT22;206;48.782;9.252;2023-04-06T08:39:49;11.90;12.00
439;DHT22;206;48.782;9.252;2023-04-06T08:42:22;12.10;11.70
439;DHT22;206;48.782;9.252;2023-04-06T08:44:50;12.00;12.10
439;DHT22;206;48.782;9.252;2023-04-06T08:47:18;12.00;12.30
439;DHT22;206;48.782;9.252;2023-04-06T08:49:44;12.00;12.10
439;DHT22;206;48.782;9.252;2023-04-06T08:52:10;12.00;12.10
439;DHT22;206;48.782;9.252;2023-04-06T08:54:37;12.10;12.10
439;DHT22;206;48.782;9.252;2023-04-06T08:57:03;12.10;11.90
439;DHT22;206;48.782;9.252;2023-04-06T08:59:30;12.20;12.00
439;DHT22;206;48.782;9.252;2023-04-06T09:01:56;12.20;11.70
439;DHT22;206;48.782;9.252;2023-04-06T09:04:22;12.20;11.70
439;DHT22;206;48.782;9.252;2023-04-06T09:06:47;12.30;11.40
439;DHT22;206;48.782;9.252;2023-04-06T09:09:15;12.40;10.30
439;DHT22;206;48.782;9.252;2023-04-06T09:11:48;12.40;10.30
439;DHT22;206;48.782;9.252;2023-04-06T09:14:16;12.20;10.10
439;DHT22;206;48.782;9.252;2023-04-06T09:16:43;12.30;10.20
439;DHT22;206;48.782;9.252;2023-04-06T09:19:11;12.30;10.20
439;DHT22;206;48.782;9.252;2023-04-06T09:21:37;12.60;10.30
439;DHT22;206;48.782;9.252;2023-04-06T09:24:04;12.70;9.80
439;DHT22;206;48.782;9.252;2023-04-06T09:26:29;12.80;9.40
439;DHT22;206;48.782;9.252;2023-04-06T09:28:57;12.90;8.40
439;DHT22;206;48.782;9.252;2023-04-06T09:31:25;13.00;8.60
439;DHT22;206;48.782;9.252;2023-04-06T09:33:51;13.20;8.70
439;DHT22;206;48.782;9.252;2023-04-06T09:36:18;13.30;7.80
439;DHT22;206;48.782;9.252;2023-04-06T09:38:57;13.30;7.90
439;DHT22;206;48.782;9.252;2023-04-06T09:44:01;13.50;7.80
439;DHT22;206;48.782;9.252;2023-04-06T09:46:27;13.60;7.10
439;DHT22;206;48.782;9.252;2023-04-06T09:48:55;13.60;6.80
439;DHT22;206;48.782;9.252;2023-04-06T09:51:22;13.50;5.60
439;DHT22;206;48.782;9.252;2023-04-06T09:53:52;13.60;4.70
439;DHT22;206;48.782;9.252;2023-04-06T09:56:23;13.50;5.50
439;DHT22;206;48.782;9.252;2023-04-06T09:58:54;13.60;5.70
439;DHT22;206;48.782;9.252;2023-04-06T10:01:22;13.60;5.10
439;DHT22;206;48.782;9.252;2023-04-06T10:06:52;13.70;3.30
439;DHT22;206;48.782;9.252;2023-04-06T10:09:19;13.60;4.40
439;DHT22;206;48.782;9.252;2023-04-06T10:11:46;13.50;3.20
439;DHT22;206;48.782;9.252;2023-04-06T10:14:12;13.50;3.80
439;DHT22;206;48.782;9.252;2023-04-06T10:16:38;13.30;4.00
439;DHT22;206;48.782;9.252;2023-04-06T10:19:16;13.20;3.20
439;DHT22;206;48.782;9.252;2023-04-06T10:21:46;13.30;2.90
439;DHT22;206;48.782;9.252;2023-04-06T10:24:13;13.30;2.20
439;DHT22;206;48.782;9.252;2023-04-06T10:26:39;13.30;2.20
439;DHT22;206;48.782;9.252;2023-04-06T10:29:06;13.20;1.50
439;DHT22;206;48.782;9.252;2023-04-06T10:31:31;13.10;2.10
439;DHT22;206;48.782;9.252;2023-04-06T10:34:00;13.00;3.20
439;DHT22;206;48.782;9.252;2023-04-06T10:36:28;13.20;3.00
439;DHT22;206;48.782;9.252;2023-04-06T10:38:58;13.30;2.80
439;DHT22;206;48.782;9.252;2023-04-06T10:41:35;13.50;2.30
439;DHT22;206;48.782;9.252;2023-04-06T10:44:01;13.60;1.60
439;DHT22;206;48.782;9.252;2023-04-06T10:46:29;13.50;2.30
439;DHT22;206;48.782;9.252;2023-04-06T10:48:55;13.60;2.40
439;DHT22;206;48.782;9.252;2023-04-06T10:51:25;13.70;2.50
439;DHT22;206;48.782;9.252;2023-04-06T10:53:53;13.60;2.40
439;DHT22;206;48.782;9.252;2023-04-06T10:56:23;13.70;2.50
439;DHT22;206;48.782;9.252;2023-04-06T10:58:52;13.90;2.60
439;DHT22;206;48.782;9.252;2023-04-06T11:01:20;14.10;1.90
439;DHT22;206;48.782;9.252;2023-04-06T11:03:47;14.20;1.60
439;DHT22;206;48.782;9.252;2023-04-06T11:06:23;14.40;2.00
439;DHT22;206;48.782;9.252;2023-04-06T11:08:50;14.50;1.60
439;DHT22;206;48.782;9.252;2023-04-06T11:11:17;14.70;1.30
439;DHT22;206;48.782;9.252;2023-04-06T11:16:26;14.60;1.00
439;DHT22;206;48.782;9.252;2023-04-06T11:18:53;14.50;1.00
439;DHT22;206;48.782;9.252;2023-04-06T11:21:32;14.40;1.00
439;DHT22;206;48.782;9.252;2023-04-06T11:26:43;14.60;1.00
439;DHT22;206;48.782;9.252;2023-04-06T11:29:11;14.50;1.00
439;DHT22;206;48.782;9.252;2023-04-06T11:31:46;14.50;1.30
439;DHT22;206;48.782;9.252;2023-04-06T11:34:13;14.50;1.40
439;DHT22;206;48.782;9.252;2023-04-06T11:36:43;14.40;1.10
439;DHT22;206;48.782;9.252;2023-04-06T11:39:09;14.50;1.00
439;DHT22;206;48.782;9.252;2023-04-06T11:41:35;14.70;1.00
439;DHT22;206;48.782;9.252;2023-04-06T11:44:02;14.80;1.00
439;DHT22;206;48.782;9.252;2023-04-06T11:46:31;14.90;1.00
439;DHT22;206;48.782;9.252;2023-04-06T11:49:00;14.80;1.00
439;DHT22;206;48.782;9.252;2023-04-06T11:51:26;14.70;1.00
439;DHT22;206;48.782;9.252;2023-04-06T11:53:53;14.40;1.00
439;DHT22;206;48.782;9.252;2023-04-06T11:56:29;14.40;1.00
439;DHT22;206;48.782;9.252;2023-04-06T11:58:58;14.50;1.00
439;DHT22;206;48.782;9.252;2023-04-06T12:01:27;14.20;1.40
439;DHT22;206;48.782;9.252;2023-04-06T12:03:53;14.20;1.00
439;DHT22;206;48.782;9.252;2023-04-06T12:06:18;14.40;1.40
439;DHT22;206;48.782;9.252;2023-04-06T12:08:45;14.70;1.00
439;DHT22;206;48.782;9.252;2023-04-06T12:11:11;14.90;1.00
439;DHT22;206;48.782;9.252;2023-04-06T12:13:37;15.20;1.00
439;DHT22;206;48.782;9.252;2023-04-06T12:16:03;15.30;1.00
439;DHT22;206;48.782;9.252;2023-04-06T12:18:31;15.10;1.00
439;DHT22;206;48.782;9.252;2023-04-06T12:20:56;15.20;1.00
439;DHT22;206;48.782;9.252;2023-04-06T12:23:22;15.00;1.00
439;DHT22;206;48.782;9.252;2023-04-06T12:25:48;15.10;1.00
439;DHT22;206;48.782;9.252;2023-04-06T12:28:13;14.90;1.00
439;DHT22;206;48.782;9.252;2023-04-06T12:30:39;15.10;1.00
439;DHT22;206;48.782;9.252;2023-04-06T12:33:06;15.30;1.00
439;DHT22;206;48.782;9.252;2023-04-06T12:35:35;15.40;1.00
439;DHT22;206;48.782;9.252;2023-04-06T12:38:02;15.50;1.00
439;DHT22;206;48.782;9.252;2023-04-06T12:40:27;15.70;1.00
439;DHT22;206;48.782;9.252;2023-04-06T12:42:53;15.80;1.00
439;DHT22;206;48.782;9.252;2023-04-06T12:45:19;16.10;1.00
439;DHT22;206;48.782;9.252;2023-04-06T12:47:45;15.80;1.00
439;DHT22;206;48.782;9.252;2023-04-06T12:50:10;15.90;1.00
439;DHT22;206;48.782;9.252;2023-04-06T12:52:36;15.90;1.00
439;DHT22;206;48.782;9.252;2023-04-06T12:55:02;15.70;1.00
439;DHT22;206;48.782;9.252;2023-04-06T12:57:28;15.90;1.00
439;DHT22;206;48.782;9.252;2023-04-06T12:59:54;16.10;1.00
439;DHT22;206;48.782;9.252;2023-04-06T13:02:20;16.20;1.00
439;DHT22;206;48.782;9.252;2023-04-06T13:04:48;16.00;1.00
439;DHT22;206;48.782;9.252;2023-04-06T13:07:13;16.00;1.00
439;DHT22;206;48.782;9.252;2023-04-06T13:09:39;16.10;1.00
439;DHT22;206;48.782;9.252;2023-04-06T13:12:05;15.90;1.00
439;DHT22;206;48.782;9.252;2023-04-06T13:14:31;15.90;1.00
439;DHT22;206;48.782;9.252;2023-04-06T13:16:57;16.10;1.00
439;DHT22;206;48.782;9.252;2023-04-06T13:19:23;16.20;1.00
439;DHT22;206;48.782;9.252;2023-04-06T13:21:48;16.10;1.00
439;DHT22;206;48.782;9.252;2023-04-06T13:24:14;16.20;1.00
439;DHT22;206;48.782;9.252;2023-04-06T13:26:40;16.00;1.00
439;DHT22;206;48.782;9.252;2023-04-06T13:29:06;15.70;1.00
439;DHT22;206;48.782;9.252;2023-04-06T13:31:31;15.60;1.00
439;DHT22;206;48.782;9.252;2023-04-06T13:33:57;15.50;1.00
439;DHT22;206;48.782;9.252;2023-04-06T13:36:23;15.50;1.00
439;DHT22;206;48.782;9.252;2023-04-06T13:38:48;15.70;1.00
439;DHT22;206;48.782;9.252;2023-04-06T13:41:21;15.90;1.00
439;DHT22;206;48.782;9.252;2023-04-06T13:43:48;16.10;1.00
439;DHT22;206;48.782;9.252;2023-04-06T13:46:13;16.40;1.00
439;DHT22;206;48.782;9.252;2023-04-06T13:48:41;16.10;1.00
439;DHT22;206;48.782;9.252;2023-04-06T13:51:11;16.10;1.00
439;DHT22;206;48.782;9.252;2023-04-06T13:53:37;16.40;1.00
439;DHT22;206;48.782;9.252;2023-04-06T13:56:03;16.50;1.00
439;DHT22;206;48.782;9.252;2023-04-06T13:58:28;16.70;1.00
439;DHT22;206;48.782;9.252;2023-04-06T14:00:54;16.90;1.00
439;DHT22;206;48.782;9.252;2023-04-06T14:03:22;17.00;1.00
439;DHT22;206;48.782;9.252;2023-04-06T14:05:47;17.00;1.00
439;DHT22;206;48.782;9.252;2023-04-06T14:08:13;17.10;1.00
439;DHT22;206;48.782;9.252;2023-04-06T14:10:39;17.00;1.00
439;DHT22;206;48.782;9.252;2023-04-06T14:13:06;17.00;1.00
439;DHT22;206;48.782;9.252;2023-04-06T14:15:31;16.80;1.00
439;DHT22;206;48.782;9.252;2023-04-06T14:17:57;16.90;1.00
439;DHT22;206;48.782;9.252;2023-04-06T14:20:23;16.80;1.00
439;DHT22;206;48.782;9.252;2023-04-06T14:22:48;16.70;1.00
439;DHT22;206;48.782;9.252;2023-04-06T14:25:14;16.80;1.00
439;DHT22;206;48.782;9.252;2023-04-06T14:27:42;16.90;1.00
439;DHT22;206;48.782;9.252;2023-04-06T14:30:08;17.10;1.00
439;DHT22;206;48.782;9.252;2023-04-06T14:32:34;17.20;1.00
439;DHT22;206;48.782;9.252;2023-04-06T14:35:01;17.20;1.00
439;DHT22;206;48.782;9.252;2023-04-06T14:37:27;17.30;1.00
439;DHT22;206;48.782;9.252;2023-04-06T14:39:52;17.30;1.00
439;DHT22;206;48.782;9.252;2023-04-06T14:42:18;17.30;1.00
439;DHT22;206;48.782;9.252;2023-04-06T14:44:43;17.40;1.00
439;DHT22;206;48.782;9.252;2023-04-06T14:47:11;17.50;1.00
439;DHT22;206;48.782;9.252;2023-04-06T14:49:37;17.40;1.00
439;DHT22;206;48.782;9.252;2023-04-06T14:52:03;17.30;1.00
439;DHT22;206;48.782;9.252;2023-04-06T14:54:29;17.20;1.00
439;DHT22;206;48.782;9.252;2023-04-06T14:56:55;17.30;1.00
439;DHT22;206;48.782;9.252;2023-04-06T14:59:22;17.30;1.00
439;DHT22;206;48.782;9.252;2023-04-06T15:01:47;17.10;1.00
439;DHT22;206;48.782;9.252;2023-04-06T15:04:13;16.80;1.00
439;DHT22;206;48.782;9.252;2023-04-06T15:06:39;16.80;1.00
439;DHT22;206;48.782;9.252;2023-04-06T15:09:05;16.60;1.00
439;DHT22;206;48.782;9.252;2023-04-06T15:11:30;16.60;1.00
439;DHT22;206;48.782;9.252;2023-04-06T15:13:56;16.40;1.00
439;DHT22;206;48.782;9.252;2023-04-06T15:16:21;16.40;1.00
439;DHT22;206;48.782;9.252;2023-04-06T15:18:47;16.50;1.00
439;DHT22;206;48.782;9.252;2023-04-06T15:21:13;16.60;1.00
439;DHT22;206;48.782;9.252;2023-04-06T15:23:38;16.60;1.00
439;DHT22;206;48.782;9.252;2023-04-06T15:26:04;16.70;1.00
439;DHT22;206;48.782;9.252;2023-04-06T15:28:29;16.70;1.00
439;DHT22;206;48.782;9.252;2023-04-06T15:30:55;16.80;1.00
439;DHT22;206;48.782;9.252;2023-04-06T15:33:22;16.90;1.00
439;DHT22;206;48.782;9.252;2023-04-06T15:35:48;16.80;1.00
439;DHT22;206;48.782;9.252;2023-04-06T15:38:14;16.40;1.00
439;DHT22;206;48.782;9.252;2023-04-06T15:40:47;16.10;1.00
439;DHT22;206;48.782;9.252;2023-04-06T15:43:14;16.00;1.00
439;DHT22;206;48.782;9.252;2023-04-06T15:45:40;15.80;1.00
439;DHT22;206;48.782;9.252;2023-04-06T15:48:06;15.80;1.00
439;DHT22;206;48.782;9.252;2023-04-06T15:50:32;15.40;1.00
439;DHT22;206;48.782;9.252;2023-04-06T15:52:58;15.60;1.00
439;DHT22;206;48.782;9.252;2023-04-06T15:55:23;15.60;1.00
439;DHT22;206;48.782;9.252;2023-04-06T15:57:49;15.50;1.00
439;DHT22;206;48.782;9.252;2023-04-06T16:00:16;15.40;1.00
439;DHT22;206;48.782;9.252;2023-04-06T16:02:42;15.20;1.00
439;DHT22;206;48.782;9.252;2023-04-06T16:05:07;15.10;1.00
439;DHT22;206;48.782;9.252;2023-04-06T16:07:33;15.20;1.00
439;DHT22;206;48.782;9.252;2023-04-06T16:09:59;15.20;1.00
439;DHT22;206;48.782;9.252;2023-04-06T16:12:25;15.30;1.00
439;DHT22;206;48.782;9.252;2023-04-06T16:14:51;15.30;1.00
439;DHT22;206;48.782;9.252;2023-04-06T16:17:16;15.40;1.00
439;DHT22;206;48.782;9.252;2023-04-06T16:19:42;15.50;1.00
439;DHT22;206;48.782;9.252;2023-04-06T16:22:08;15.40;1.00
439;DHT22;206;48.782;9.252;2023-04-06T16:24:34;15.40;1.00
439;DHT22;206;48.782;9.252;2023-04-06T16:27:00;15.40;1.00
439;DHT22;206;48.782;9.252;2023-04-06T16:29:26;15.30;1.00
439;DHT22;206;48.782;9.252;2023-04-06T16:31:52;15.40;1.00
439;DHT22;206;48.782;9.252;2023-04-06T16:34:18;15.30;1.00
439;DHT22;206;48.782;9.252;2023-04-06T16:36:44;15.20;1.00
439;DHT22;206;48.782;9.252;2023-04-06T16:39:11;15.00;1.00
439;DHT22;206;48.782;9.252;2023-04-06T16:41:37;15.00;1.00
439;DHT22;206;48.782;9.252;2023-04-06T16:44:03;15.10;1.00
439;DHT22;206;48.782;9.252;2023-04-06T16:46:35;15.00;1.00
439;DHT22;206;48.782;9.252;2023-04-06T16:49:03;15.10;1.00
439;DHT22;206;48.782;9.252;2023-04-06T16:51:30;15.10;1.00
439;DHT22;206;48.782;9.252;2023-04-06T16:53:57;15.10;1.00